Etusivu
METAR-TAF:

METAR-TAF

Lentoasemat :

Udaipur, Intia

Leveyspiiri: 24-37-04N, Pituuspiiri: 73-53-46E, korkeus merenpinnasta: 513 m

Tämänhetkinen sää

Tämä raportti tehtiin 19 tuntia ja 26 minuuttia sitten, kello 00.00 UTC
Lämpötila 20°C
Kosteus 73%
Ilmanpaine 1010 hPa
Näkyvyys: 5000 m
usvaa

METAR: VAUD 080000Z 00000 5000 HZ NSC 20/15 Q1010 NOSIG

Aika: 00:56 (19:26 UTC)

Sääennuste

Tämä raportti tehtiin 11 tuntia ja 26 minuuttia sitten, kello 08.00 UTC
Ennuste voimassa 08. päivästä klo 09 UTC - 08. päivään klo 18 UTC
Tuuli 8 kn lounaasta
Näkyvyys: 6000 m
Muutamia pilviä 10000 ft:n korkeudessa
Tulossa
08. päivästä klo 14 UTC - 08. päivään klo 15 UTC
Tuuli 6 kn koillisesta
Näkyvyys: 5000 m
usvaa

TAF: VAUD 080800Z 0809/0818 23008KT 6000 FEW100 BECMG 0814/0815 05006KT 5000 HZ

Säähavainnot ja -ennusteet yli 4000 lentoasemalta (METAR- ja TAF-raportit).

Käytössä olevat sääasemat on merkitty karttaan keltaisilla ja punaisilla pisteillä.

Aseta hiiri pisteen päälle nähdäksesi sääaseman nimen.

Klikkaa sitten nähdäksesi säähavainnot ja -ennusteet.

Kartan vaihtaminen: klikkaa mustalla rastilla varustettuja vihreitä pisteitä, niin voit zoomata sisään; viivalla varustettua vihreää pistettä, niin voit zoomata ulos tai vihreitä nuolia, niin pääset viereisille kartoille.


METAR-TAF: